Nearby METAR Reports

 

LEVT - Vitoria, Spain
Distance from station: O 10km
Actualización: 09/05/2021 18:00
Muy nuboso
Muy nuboso
 Viento del SO
Viento: SO 35 km/h
Temperatura: 17°C
Rocío: 7°C
Humedad: 52%
Barómetro: 1002 hPa
Clouds: Muy nuboso
Visibility: 10 km
Cloud details: Few Clouds 549 m
Parcialmente nuboso 914 m
Muy nuboso 2316 m
2021/05/09 16:00 LEVT 091600Z 23019KT 200V260 9999 FEW018 SCT030 BKN076 17/07 Q1002
LELO - Logrono/Agoncill, Spain
Distance from station: SSE 51km
Actualización: 09/05/2021 18:00
Parcialmente nuboso
Parcialmente nuboso
 Viento del OSO
Viento: OSO 19 km/h
Temperatura: 20°C
Rocío: 7°C
Humedad: 43%
Barómetro: 1002 hPa
Clouds: Parcialmente nuboso
Visibility: 10 km
Cloud details: Few Clouds 1219 m
Parcialmente nuboso 2286 m
2021/05/09 16:00 LELO 091600Z 25010KT 220V280 9999 FEW040 SCT075 20/07 Q1002
LEBB - Bilbao/Sondica, Spain
Distance from station: NNO 54km
Actualización: 09/05/2021 18:00
Parcialmente nuboso
Parcialmente nuboso
 Viento del varies
Viento: varies 6 km/h
Temperatura: 16°C
Rocío: 12°C
Humedad: 77%
Barómetro: 1002 hPa
Clouds: Parcialmente nuboso
Visibility: 10 km
Cloud details: Few Clouds 1067 m
Parcialmente nuboso 2134 m
2021/05/09 16:00 LEBB 091600Z VRB03KT 9999 FEW035TCU SCT070 16/12 Q1002 TEMPO 3000 SHRA
 
LEPP - Pamplona/Noain, Spain
Distance from station: E 78km
Actualización: 09/05/2021 18:00
Few Clouds
Few Clouds
 Viento del SE
Viento: SE 22 km/h
Temperatura: 19°C
Rocío: 13°C
Humedad: 68%
Barómetro: 1001 hPa
Clouds: Few Clouds
Visibility: 10 km
Cloud details: Few Clouds 762 m
2021/05/09 16:00 LEPP 091600Z 13012KT 100V180 9999 FEW025 19/13 Q1001
LESO - San Sebastian/Fu, Spain
Distance from station: NE 85km
Actualización: 09/05/2021 18:00
Lluvia débil, Muy nuboso
Lluvia débil, Muy nuboso
 Viento del ONO
Viento: ONO 26 km/h, Racha: 54 km/h
Temperatura: 17°C
Rocío: 14°C
Humedad: 83%
Barómetro: 1001 hPa
Resumen: Lluvia débil
Clouds: Muy nuboso
Visibility: 10 km
Cloud details: Parcialmente nuboso 1219 m
Parcialmente nuboso 1524 m
Muy nuboso 1829 m
2021/05/09 16:00 LESO 091600Z 30014G29KT 250V340 9999 -RA SCT040 SCT050TCU BKN060 17/14 Q1001
LEBG - Burgos/Villafria, Spain
Distance from station: SO 100km
Actualización: 09/05/2021 18:00
Lluvia débil, Muy nuboso
Lluvia débil, Muy nuboso
 Viento del SO
Viento: SO 28 km/h
Temperatura: 9°C
Wind Chill: 6°C
Rocío: 8°C
Humedad: 94%
Barómetro: 1004 hPa
Resumen: Lluvia débil
Clouds: Muy nuboso
Visibility: 10 km
Cloud details: Few Clouds 244 m
Muy nuboso 853 m
2021/05/09 16:00 LEBG 091600Z 22015KT 9999 4900SW -RA FEW008 BKN028 09/08 Q1004
 
LFBZ - Biarritz/Anglet, France
Distance from station: NE 111km
Actualización: 09/05/2021 18:00
Thunderstorm
Thunderstorm
 Viento del SSO
Viento: SSO 15 km/h
Temperatura: 22°C
Rocío: 12°C
Humedad: 53%
Barómetro: 1000 hPa
Clouds: Thunderstorm
Visibility: 10 km
Cloud details: Few Clouds 1646 m
Parcialmente nuboso 3962 m
Muy nuboso 5182 m
2021/05/09 16:00 LFBZ 091600Z AUTO 20008KT 130V260 9999 FEW054/// SCT130/// BKN170/// ///CB 22/12 Q1000 TEMPO 27025G50KT 3000 TSRA
LEXJ - Santander/Paraya, Spain
Distance from station: ONO 117km
Actualización: 09/05/2021 18:00
Muy nuboso
Muy nuboso
 Viento del NO
Viento: NO 20 km/h
Temperatura: 15°C
Rocío: 10°C
Humedad: 72%
Barómetro: 1002 hPa
Clouds: Muy nuboso
Visibility: 10 km
Cloud details: Parcialmente nuboso 610 m
Muy nuboso 1219 m
2021/05/09 16:00 LEXJ 091600Z 31011KT 280V340 9999 SCT020 BKN040 15/10 Q1002